sensor_id;sensor_type;location;lat;lon;timestamp;temperature;humidity
19908;DHT22;10116;53.112;7.356;2024-02-16T00:01:05;24.40;99.90
19908;DHT22;10116;53.112;7.356;2024-02-16T00:03:31;24.40;99.90
19908;DHT22;10116;53.112;7.356;2024-02-16T00:05:56;24.40;99.90
19908;DHT22;10116;53.112;7.356;2024-02-16T00:08:22;24.40;99.90
19908;DHT22;10116;53.112;7.356;2024-02-16T00:10:48;24.40;99.90
19908;DHT22;10116;53.112;7.356;2024-02-16T00:13:14;24.40;99.90
19908;DHT22;10116;53.112;7.356;2024-02-16T00:15:39;24.40;99.90
19908;DHT22;10116;53.112;7.356;2024-02-16T00:18:06;24.40;99.90
19908;DHT22;10116;53.112;7.356;2024-02-16T00:20:31;24.40;99.90
19908;DHT22;10116;53.112;7.356;2024-02-16T00:22:58;24.40;99.90
19908;DHT22;10116;53.112;7.356;2024-02-16T00:25:23;24.40;99.90
19908;DHT22;10116;53.112;7.356;2024-02-16T00:27:49;24.40;99.90
19908;DHT22;10116;53.112;7.356;2024-02-16T00:30:16;24.40;99.90
19908;DHT22;10116;53.112;7.356;2024-02-16T00:32:43;24.40;99.90
19908;DHT22;10116;53.112;7.356;2024-02-16T00:35:16;24.40;99.90
19908;DHT22;10116;53.112;7.356;2024-02-16T00:37:43;24.40;99.90
19908;DHT22;10116;53.112;7.356;2024-02-16T00:40:09;24.40;99.90
19908;DHT22;10116;53.112;7.356;2024-02-16T00:42:35;24.40;99.90
19908;DHT22;10116;53.112;7.356;2024-02-16T00:45:00;24.40;99.90
19908;DHT22;10116;53.112;7.356;2024-02-16T00:47:26;24.40;99.90
19908;DHT22;10116;53.112;7.356;2024-02-16T00:49:55;24.40;99.90
19908;DHT22;10116;53.112;7.356;2024-02-16T00:52:21;24.40;99.90
19908;DHT22;10116;53.112;7.356;2024-02-16T00:54:48;24.40;99.90
19908;DHT22;10116;53.112;7.356;2024-02-16T00:57:14;24.40;99.90
19908;DHT22;10116;53.112;7.356;2024-02-16T00:59:42;24.40;99.90
19908;DHT22;10116;53.112;7.356;2024-02-16T01:02:08;24.40;99.90
19908;DHT22;10116;53.112;7.356;2024-02-16T01:04:35;24.40;99.90
19908;DHT22;10116;53.112;7.356;2024-02-16T01:07:01;24.40;99.90
19908;DHT22;10116;53.112;7.356;2024-02-16T01:09:27;24.30;99.90
19908;DHT22;10116;53.112;7.356;2024-02-16T01:11:52;24.40;99.90
19908;DHT22;10116;53.112;7.356;2024-02-16T01:14:18;24.30;99.90
19908;DHT22;10116;53.112;7.356;2024-02-16T01:16:45;24.30;99.90
19908;DHT22;10116;53.112;7.356;2024-02-16T01:19:12;24.30;99.90
19908;DHT22;10116;53.112;7.356;2024-02-16T01:21:38;24.30;99.90
19908;DHT22;10116;53.112;7.356;2024-02-16T01:24:04;24.30;99.90
19908;DHT22;10116;53.112;7.356;2024-02-16T01:26:31;24.30;99.90
19908;DHT22;10116;53.112;7.356;2024-02-16T01:28:58;24.30;99.90
19908;DHT22;10116;53.112;7.356;2024-02-16T01:31:24;24.30;99.90
19908;DHT22;10116;53.112;7.356;2024-02-16T01:33:49;24.30;99.90
19908;DHT22;10116;53.112;7.356;2024-02-16T01:36:15;24.30;99.90
19908;DHT22;10116;53.112;7.356;2024-02-16T01:38:41;24.30;99.90
19908;DHT22;10116;53.112;7.356;2024-02-16T01:41:06;24.30;99.90
19908;DHT22;10116;53.112;7.356;2024-02-16T01:43:34;24.30;99.90
19908;DHT22;10116;53.112;7.356;2024-02-16T01:46:00;24.30;99.90
19908;DHT22;10116;53.112;7.356;2024-02-16T01:48:26;24.30;99.90
19908;DHT22;10116;53.112;7.356;2024-02-16T01:50:53;24.30;99.90
19908;DHT22;10116;53.112;7.356;2024-02-16T01:53:20;24.30;99.90
19908;DHT22;10116;53.112;7.356;2024-02-16T01:55:47;24.30;99.90
19908;DHT22;10116;53.112;7.356;2024-02-16T01:58:12;24.30;99.90
19908;DHT22;10116;53.112;7.356;2024-02-16T02:00:39;24.30;99.90
19908;DHT22;10116;53.112;7.356;2024-02-16T02:03:06;24.30;99.90
19908;DHT22;10116;53.112;7.356;2024-02-16T02:05:32;24.30;99.90
19908;DHT22;10116;53.112;7.356;2024-02-16T02:07:58;24.30;99.90
19908;DHT22;10116;53.112;7.356;2024-02-16T02:10:24;24.20;99.90
19908;DHT22;10116;53.112;7.356;2024-02-16T02:12:49;24.30;99.90
19908;DHT22;10116;53.112;7.356;2024-02-16T02:15:15;24.30;99.90
19908;DHT22;10116;53.112;7.356;2024-02-16T02:17:41;24.20;99.90
19908;DHT22;10116;53.112;7.356;2024-02-16T02:20:07;24.30;99.90
19908;DHT22;10116;53.112;7.356;2024-02-16T02:22:37;24.20;99.90
19908;DHT22;10116;53.112;7.356;2024-02-16T02:25:03;24.20;99.90
19908;DHT22;10116;53.112;7.356;2024-02-16T02:27:30;24.30;99.90
19908;DHT22;10116;53.112;7.356;2024-02-16T02:29:56;24.20;99.90
19908;DHT22;10116;53.112;7.356;2024-02-16T02:32:21;24.20;99.90
19908;DHT22;10116;53.112;7.356;2024-02-16T02:34:47;24.20;99.90
19908;DHT22;10116;53.112;7.356;2024-02-16T02:37:13;24.20;99.90
19908;DHT22;10116;53.112;7.356;2024-02-16T02:39:38;24.20;99.90
19908;DHT22;10116;53.112;7.356;2024-02-16T02:42:05;24.20;99.90
19908;DHT22;10116;53.112;7.356;2024-02-16T02:44:32;24.20;99.90
19908;DHT22;10116;53.112;7.356;2024-02-16T02:46:58;24.20;99.90
19908;DHT22;10116;53.112;7.356;2024-02-16T02:49:24;24.20;99.90
19908;DHT22;10116;53.112;7.356;2024-02-16T02:51:49;24.20;99.90
19908;DHT22;10116;53.112;7.356;2024-02-16T02:54:15;24.20;99.90
19908;DHT22;10116;53.112;7.356;2024-02-16T02:56:41;24.20;99.90
19908;DHT22;10116;53.112;7.356;2024-02-16T02:59:06;24.20;99.90
19908;DHT22;10116;53.112;7.356;2024-02-16T03:01:35;24.20;99.90
19908;DHT22;10116;53.112;7.356;2024-02-16T03:04:01;24.20;99.90
19908;DHT22;10116;53.112;7.356;2024-02-16T03:06:26;24.20;99.90
19908;DHT22;10116;53.112;7.356;2024-02-16T03:08:52;24.20;99.90
19908;DHT22;10116;53.112;7.356;2024-02-16T03:11:18;24.20;99.90
19908;DHT22;10116;53.112;7.356;2024-02-16T03:13:44;24.20;99.90
19908;DHT22;10116;53.112;7.356;2024-02-16T03:16:09;24.20;99.90
19908;DHT22;10116;53.112;7.356;2024-02-16T03:18:36;24.20;99.90
19908;DHT22;10116;53.112;7.356;2024-02-16T03:21:02;24.20;99.90
19908;DHT22;10116;53.112;7.356;2024-02-16T03:23:28;24.20;99.90
19908;DHT22;10116;53.112;7.356;2024-02-16T03:25:53;24.20;99.90
19908;DHT22;10116;53.112;7.356;2024-02-16T03:28:20;24.20;99.90
19908;DHT22;10116;53.112;7.356;2024-02-16T03:30:46;24.20;99.90
19908;DHT22;10116;53.112;7.356;2024-02-16T03:33:12;24.20;99.90
19908;DHT22;10116;53.112;7.356;2024-02-16T03:35:39;24.20;99.90
19908;DHT22;10116;53.112;7.356;2024-02-16T03:38:05;24.20;99.90
19908;DHT22;10116;53.112;7.356;2024-02-16T03:40:31;24.20;99.90
19908;DHT22;10116;53.112;7.356;2024-02-16T03:42:58;24.20;99.90
19908;DHT22;10116;53.112;7.356;2024-02-16T03:45:24;24.20;99.90
19908;DHT22;10116;53.112;7.356;2024-02-16T03:47:50;24.20;99.90
19908;DHT22;10116;53.112;7.356;2024-02-16T03:50:21;24.20;99.90
19908;DHT22;10116;53.112;7.356;2024-02-16T03:52:47;24.20;99.90
19908;DHT22;10116;53.112;7.356;2024-02-16T03:55:13;24.20;99.90
19908;DHT22;10116;53.112;7.356;2024-02-16T03:57:39;24.20;99.90
19908;DHT22;10116;53.112;7.356;2024-02-16T04:00:06;24.20;99.90
19908;DHT22;10116;53.112;7.356;2024-02-16T04:02:32;24.20;99.90
19908;DHT22;10116;53.112;7.356;2024-02-16T04:04:57;24.20;99.90
19908;DHT22;10116;53.112;7.356;2024-02-16T04:07:23;24.20;99.90
19908;DHT22;10116;53.112;7.356;2024-02-16T04:09:49;24.20;99.90
19908;DHT22;10116;53.112;7.356;2024-02-16T04:12:15;24.20;99.90
19908;DHT22;10116;53.112;7.356;2024-02-16T04:14:40;24.20;99.90
19908;DHT22;10116;53.112;7.356;2024-02-16T04:17:07;24.20;99.90
19908;DHT22;10116;53.112;7.356;2024-02-16T04:19:32;24.20;99.90
19908;DHT22;10116;53.112;7.356;2024-02-16T04:21:58;24.20;99.90
19908;DHT22;10116;53.112;7.356;2024-02-16T04:24:24;24.20;99.90
19908;DHT22;10116;53.112;7.356;2024-02-16T04:26:49;24.20;99.90
19908;DHT22;10116;53.112;7.356;2024-02-16T04:29:15;24.20;99.90
19908;DHT22;10116;53.112;7.356;2024-02-16T04:31:42;24.20;99.90
19908;DHT22;10116;53.112;7.356;2024-02-16T04:34:11;24.30;99.90
19908;DHT22;10116;53.112;7.356;2024-02-16T04:36:37;24.30;99.90
19908;DHT22;10116;53.112;7.356;2024-02-16T04:39:02;24.40;99.90
19908;DHT22;10116;53.112;7.356;2024-02-16T04:41:29;24.40;99.90
19908;DHT22;10116;53.112;7.356;2024-02-16T04:43:54;24.40;99.90
19908;DHT22;10116;53.112;7.356;2024-02-16T04:46:20;24.50;99.90
19908;DHT22;10116;53.112;7.356;2024-02-16T04:48:47;24.50;99.90
19908;DHT22;10116;53.112;7.356;2024-02-16T04:51:12;24.50;99.90
19908;DHT22;10116;53.112;7.356;2024-02-16T04:53:38;24.60;99.90
19908;DHT22;10116;53.112;7.356;2024-02-16T04:56:04;24.60;99.90
19908;DHT22;10116;53.112;7.356;2024-02-16T04:58:30;24.60;99.90
19908;DHT22;10116;53.112;7.356;2024-02-16T05:00:56;24.60;99.90
19908;DHT22;10116;53.112;7.356;2024-02-16T05:03:22;24.60;99.90
19908;DHT22;10116;53.112;7.356;2024-02-16T05:05:48;24.60;99.90
19908;DHT22;10116;53.112;7.356;2024-02-16T05:08:14;24.60;99.90
19908;DHT22;10116;53.112;7.356;2024-02-16T05:10:39;24.60;99.90
19908;DHT22;10116;53.112;7.356;2024-02-16T05:13:05;24.60;99.90
19908;DHT22;10116;53.112;7.356;2024-02-16T05:15:31;24.60;99.90
19908;DHT22;10116;53.112;7.356;2024-02-16T05:17:57;24.60;99.90
19908;DHT22;10116;53.112;7.356;2024-02-16T05:20:23;24.60;99.90
19908;DHT22;10116;53.112;7.356;2024-02-16T05:22:49;24.60;99.90
19908;DHT22;10116;53.112;7.356;2024-02-16T05:25:18;24.50;99.90
19908;DHT22;10116;53.112;7.356;2024-02-16T05:27:45;24.50;99.90
19908;DHT22;10116;53.112;7.356;2024-02-16T05:30:12;24.50;99.90
19908;DHT22;10116;53.112;7.356;2024-02-16T05:32:40;24.50;99.90
19908;DHT22;10116;53.112;7.356;2024-02-16T05:35:06;24.50;99.90
19908;DHT22;10116;53.112;7.356;2024-02-16T05:37:47;24.50;99.90
19908;DHT22;10116;53.112;7.356;2024-02-16T05:40:15;24.50;99.90
19908;DHT22;10116;53.112;7.356;2024-02-16T05:42:52;24.50;99.90
19908;DHT22;10116;53.112;7.356;2024-02-16T05:45:19;24.40;99.90
19908;DHT22;10116;53.112;7.356;2024-02-16T05:47:45;24.40;99.90
19908;DHT22;10116;53.112;7.356;2024-02-16T05:50:14;24.40;99.90
19908;DHT22;10116;53.112;7.356;2024-02-16T05:52:41;24.40;99.90
19908;DHT22;10116;53.112;7.356;2024-02-16T05:55:08;24.40;99.90
19908;DHT22;10116;53.112;7.356;2024-02-16T05:57:34;24.40;99.90
19908;DHT22;10116;53.112;7.356;2024-02-16T06:00:01;24.40;99.90
19908;DHT22;10116;53.112;7.356;2024-02-16T06:02:29;24.40;99.90
19908;DHT22;10116;53.112;7.356;2024-02-16T06:04:55;24.40;99.90
19908;DHT22;10116;53.112;7.356;2024-02-16T06:07:21;24.40;99.90
19908;DHT22;10116;53.112;7.356;2024-02-16T06:09:46;24.40;99.90
19908;DHT22;10116;53.112;7.356;2024-02-16T06:12:12;24.40;99.90
19908;DHT22;10116;53.112;7.356;2024-02-16T06:14:38;24.40;99.90
19908;DHT22;10116;53.112;7.356;2024-02-16T06:17:04;24.40;99.90
19908;DHT22;10116;53.112;7.356;2024-02-16T06:19:29;24.50;99.90
19908;DHT22;10116;53.112;7.356;2024-02-16T06:21:56;24.60;99.90
19908;DHT22;10116;53.112;7.356;2024-02-16T06:24:22;24.60;99.90
19908;DHT22;10116;53.112;7.356;2024-02-16T06:26:48;24.60;99.90
19908;DHT22;10116;53.112;7.356;2024-02-16T06:29:14;24.60;99.90
19908;DHT22;10116;53.112;7.356;2024-02-16T06:31:41;24.70;99.90
19908;DHT22;10116;53.112;7.356;2024-02-16T06:34:07;24.70;99.90
19908;DHT22;10116;53.112;7.356;2024-02-16T06:36:33;24.70;99.90
19908;DHT22;10116;53.112;7.356;2024-02-16T06:39:00;24.70;99.90
19908;DHT22;10116;53.112;7.356;2024-02-16T06:41:26;24.70;99.90
19908;DHT22;10116;53.112;7.356;2024-02-16T06:43:52;24.70;99.90
19908;DHT22;10116;53.112;7.356;2024-02-16T06:46:18;24.70;99.90
19908;DHT22;10116;53.112;7.356;2024-02-16T06:48:43;24.70;99.90
19908;DHT22;10116;53.112;7.356;2024-02-16T06:51:09;24.60;99.90
19908;DHT22;10116;53.112;7.356;2024-02-16T06:53:35;24.60;99.90
19908;DHT22;10116;53.112;7.356;2024-02-16T06:56:00;24.60;99.90
19908;DHT22;10116;53.112;7.356;2024-02-16T06:58:26;24.30;99.90
19908;DHT22;10116;53.112;7.356;2024-02-16T07:00:51;24.30;99.90
19908;DHT22;10116;53.112;7.356;2024-02-16T07:03:17;24.30;99.90
19908;DHT22;10116;53.112;7.356;2024-02-16T07:05:43;24.20;99.90
19908;DHT22;10116;53.112;7.356;2024-02-16T07:08:09;24.20;99.90
19908;DHT22;10116;53.112;7.356;2024-02-16T07:10:35;24.20;99.90
19908;DHT22;10116;53.112;7.356;2024-02-16T07:13:01;24.20;99.90
19908;DHT22;10116;53.112;7.356;2024-02-16T07:15:26;24.20;99.90
19908;DHT22;10116;53.112;7.356;2024-02-16T07:17:53;24.20;99.90
19908;DHT22;10116;53.112;7.356;2024-02-16T07:20:19;24.20;99.90
19908;DHT22;10116;53.112;7.356;2024-02-16T07:22:44;24.20;99.90
19908;DHT22;10116;53.112;7.356;2024-02-16T07:25:17;24.20;99.90
19908;DHT22;10116;53.112;7.356;2024-02-16T07:27:43;24.20;99.90
19908;DHT22;10116;53.112;7.356;2024-02-16T07:30:09;24.20;99.90
19908;DHT22;10116;53.112;7.356;2024-02-16T07:32:36;24.20;99.90
19908;DHT22;10116;53.112;7.356;2024-02-16T07:35:02;24.20;99.90
19908;DHT22;10116;53.112;7.356;2024-02-16T07:37:28;24.20;99.90
19908;DHT22;10116;53.112;7.356;2024-02-16T07:39:54;24.20;99.90
19908;DHT22;10116;53.112;7.356;2024-02-16T07:42:19;24.20;99.90
19908;DHT22;10116;53.112;7.356;2024-02-16T07:44:46;24.30;99.90
19908;DHT22;10116;53.112;7.356;2024-02-16T07:47:12;24.30;99.90
19908;DHT22;10116;53.112;7.356;2024-02-16T07:49:41;24.30;99.90
19908;DHT22;10116;53.112;7.356;2024-02-16T07:52:06;24.30;99.90
19908;DHT22;10116;53.112;7.356;2024-02-16T07:54:32;24.30;99.90
19908;DHT22;10116;53.112;7.356;2024-02-16T07:56:58;24.30;99.90
19908;DHT22;10116;53.112;7.356;2024-02-16T07:59:25;24.30;99.90
19908;DHT22;10116;53.112;7.356;2024-02-16T08:01:50;24.30;99.90
19908;DHT22;10116;53.112;7.356;2024-02-16T08:04:16;24.30;99.90
19908;DHT22;10116;53.112;7.356;2024-02-16T08:06:42;24.30;99.90
19908;DHT22;10116;53.112;7.356;2024-02-16T08:09:07;24.30;99.90
19908;DHT22;10116;53.112;7.356;2024-02-16T08:11:33;24.30;99.90
19908;DHT22;10116;53.112;7.356;2024-02-16T08:13:59;24.30;99.90
19908;DHT22;10116;53.112;7.356;2024-02-16T08:16:27;24.30;99.90
19908;DHT22;10116;53.112;7.356;2024-02-16T08:18:53;24.30;99.90
19908;DHT22;10116;53.112;7.356;2024-02-16T08:21:18;24.20;99.90
19908;DHT22;10116;53.112;7.356;2024-02-16T08:23:44;24.30;99.90
19908;DHT22;10116;53.112;7.356;2024-02-16T08:26:10;24.30;99.90
19908;DHT22;10116;53.112;7.356;2024-02-16T08:28:35;24.30;99.90
19908;DHT22;10116;53.112;7.356;2024-02-16T08:31:01;24.30;99.90
19908;DHT22;10116;53.112;7.356;2024-02-16T08:33:27;24.30;99.90
19908;DHT22;10116;53.112;7.356;2024-02-16T08:35:52;24.30;99.90
19908;DHT22;10116;53.112;7.356;2024-02-16T08:38:18;24.30;99.90
19908;DHT22;10116;53.112;7.356;2024-02-16T08:40:43;24.30;99.90
19908;DHT22;10116;53.112;7.356;2024-02-16T08:43:09;24.30;99.90
19908;DHT22;10116;53.112;7.356;2024-02-16T08:45:35;24.20;99.90
19908;DHT22;10116;53.112;7.356;2024-02-16T08:48:00;24.20;99.90
19908;DHT22;10116;53.112;7.356;2024-02-16T08:50:29;24.20;99.90
19908;DHT22;10116;53.112;7.356;2024-02-16T08:52:55;24.20;99.90
19908;DHT22;10116;53.112;7.356;2024-02-16T08:55:21;24.20;99.90
19908;DHT22;10116;53.112;7.356;2024-02-16T08:57:46;24.20;99.90
19908;DHT22;10116;53.112;7.356;2024-02-16T09:00:12;24.20;99.90
19908;DHT22;10116;53.112;7.356;2024-02-16T09:02:38;24.10;99.90
19908;DHT22;10116;53.112;7.356;2024-02-16T09:05:04;24.10;99.90
19908;DHT22;10116;53.112;7.356;2024-02-16T09:07:30;24.10;99.90
19908;DHT22;10116;53.112;7.356;2024-02-16T09:09:56;24.10;99.90
19908;DHT22;10116;53.112;7.356;2024-02-16T09:12:22;24.20;99.90
19908;DHT22;10116;53.112;7.356;2024-02-16T09:14:48;24.10;99.90
19908;DHT22;10116;53.112;7.356;2024-02-16T09:17:13;24.10;99.90
19908;DHT22;10116;53.112;7.356;2024-02-16T09:19:39;24.10;99.90
19908;DHT22;10116;53.112;7.356;2024-02-16T09:22:05;24.20;99.90
19908;DHT22;10116;53.112;7.356;2024-02-16T09:24:32;24.20;99.90
19908;DHT22;10116;53.112;7.356;2024-02-16T09:26:58;24.30;99.90
19908;DHT22;10116;53.112;7.356;2024-02-16T09:29:29;24.30;99.90
19908;DHT22;10116;53.112;7.356;2024-02-16T09:31:54;24.30;99.90
19908;DHT22;10116;53.112;7.356;2024-02-16T09:34:20;24.30;99.90
19908;DHT22;10116;53.112;7.356;2024-02-16T09:36:46;24.30;99.90
19908;DHT22;10116;53.112;7.356;2024-02-16T09:39:11;24.30;99.90
19908;DHT22;10116;53.112;7.356;2024-02-16T09:41:41;24.30;99.90
19908;DHT22;10116;53.112;7.356;2024-02-16T09:44:07;24.30;99.90
19908;DHT22;10116;53.112;7.356;2024-02-16T09:46:33;24.30;99.90
19908;DHT22;10116;53.112;7.356;2024-02-16T09:49:03;24.30;99.90
19908;DHT22;10116;53.112;7.356;2024-02-16T09:51:30;24.30;99.90
19908;DHT22;10116;53.112;7.356;2024-02-16T09:53:56;24.30;99.90
19908;DHT22;10116;53.112;7.356;2024-02-16T09:56:22;24.30;99.90
19908;DHT22;10116;53.112;7.356;2024-02-16T09:58:47;24.30;99.90
19908;DHT22;10116;53.112;7.356;2024-02-16T10:01:20;24.30;99.90
19908;DHT22;10116;53.112;7.356;2024-02-16T10:03:46;24.30;99.90
19908;DHT22;10116;53.112;7.356;2024-02-16T10:06:12;24.20;99.90
19908;DHT22;10116;53.112;7.356;2024-02-16T10:08:54;24.20;99.90
19908;DHT22;10116;53.112;7.356;2024-02-16T10:11:22;24.20;99.90
19908;DHT22;10116;53.112;7.356;2024-02-16T10:16:22;24.20;99.90
19908;DHT22;10116;53.112;7.356;2024-02-16T10:18:47;24.20;99.90
19908;DHT22;10116;53.112;7.356;2024-02-16T10:21:13;24.20;99.90
19908;DHT22;10116;53.112;7.356;2024-02-16T10:23:38;24.20;99.90
19908;DHT22;10116;53.112;7.356;2024-02-16T10:26:04;24.30;99.90
19908;DHT22;10116;53.112;7.356;2024-02-16T10:28:30;24.30;99.90
19908;DHT22;10116;53.112;7.356;2024-02-16T10:30:58;24.30;99.90
19908;DHT22;10116;53.112;7.356;2024-02-16T10:33:27;24.30;99.90
19908;DHT22;10116;53.112;7.356;2024-02-16T10:35:56;24.30;99.90
19908;DHT22;10116;53.112;7.356;2024-02-16T10:38:25;24.30;99.90
19908;DHT22;10116;53.112;7.356;2024-02-16T10:40:53;24.30;99.90
19908;DHT22;10116;53.112;7.356;2024-02-16T10:43:20;24.30;99.90
19908;DHT22;10116;53.112;7.356;2024-02-16T10:45:47;24.30;99.90
19908;DHT22;10116;53.112;7.356;2024-02-16T10:48:18;24.30;99.90
19908;DHT22;10116;53.112;7.356;2024-02-16T10:50:44;24.30;99.90
19908;DHT22;10116;53.112;7.356;2024-02-16T10:53:25;24.30;99.90
19908;DHT22;10116;53.112;7.356;2024-02-16T10:55:51;24.30;99.90
19908;DHT22;10116;53.112;7.356;2024-02-16T10:58:18;24.30;99.90
19908;DHT22;10116;53.112;7.356;2024-02-16T11:00:54;24.30;99.90
19908;DHT22;10116;53.112;7.356;2024-02-16T11:03:25;24.30;99.90
19908;DHT22;10116;53.112;7.356;2024-02-16T11:05:51;24.40;99.90
19908;DHT22;10116;53.112;7.356;2024-02-16T11:08:23;24.40;99.90
19908;DHT22;10116;53.112;7.356;2024-02-16T11:10:59;24.40;99.90
19908;DHT22;10116;53.112;7.356;2024-02-16T11:13:26;24.50;99.90
19908;DHT22;10116;53.112;7.356;2024-02-16T11:15:59;24.60;99.90
19908;DHT22;10116;53.112;7.356;2024-02-16T11:18:29;24.60;99.90
19908;DHT22;10116;53.112;7.356;2024-02-16T11:20:55;24.70;99.90
19908;DHT22;10116;53.112;7.356;2024-02-16T11:23:29;24.70;99.90
19908;DHT22;10116;53.112;7.356;2024-02-16T11:26:03;24.70;99.90
19908;DHT22;10116;53.112;7.356;2024-02-16T11:28:34;24.70;99.90
19908;DHT22;10116;53.112;7.356;2024-02-16T11:31:00;24.80;99.90
19908;DHT22;10116;53.112;7.356;2024-02-16T11:33:26;24.80;99.90
19908;DHT22;10116;53.112;7.356;2024-02-16T11:36:02;24.80;99.90
19908;DHT22;10116;53.112;7.356;2024-02-16T11:38:31;24.80;99.90
19908;DHT22;10116;53.112;7.356;2024-02-16T11:41:00;24.70;99.90
19908;DHT22;10116;53.112;7.356;2024-02-16T11:43:26;24.70;99.90
19908;DHT22;10116;53.112;7.356;2024-02-16T11:45:52;24.70;99.90
19908;DHT22;10116;53.112;7.356;2024-02-16T11:48:26;24.70;99.90
19908;DHT22;10116;53.112;7.356;2024-02-16T11:51:03;24.70;99.90
19908;DHT22;10116;53.112;7.356;2024-02-16T11:53:30;24.70;99.90
19908;DHT22;10116;53.112;7.356;2024-02-16T11:55:55;24.70;99.90
19908;DHT22;10116;53.112;7.356;2024-02-16T11:58:22;24.70;99.90
19908;DHT22;10116;53.112;7.356;2024-02-16T12:00:48;24.70;99.90
19908;DHT22;10116;53.112;7.356;2024-02-16T12:03:21;24.70;99.90
19908;DHT22;10116;53.112;7.356;2024-02-16T12:05:55;24.70;99.90
19908;DHT22;10116;53.112;7.356;2024-02-16T12:08:21;24.70;99.90
19908;DHT22;10116;53.112;7.356;2024-02-16T12:10:48;24.70;99.90
19908;DHT22;10116;53.112;7.356;2024-02-16T12:13:16;24.70;99.90
19908;DHT22;10116;53.112;7.356;2024-02-16T12:15:44;24.70;99.90
19908;DHT22;10116;53.112;7.356;2024-02-16T12:18:10;24.70;99.90
19908;DHT22;10116;53.112;7.356;2024-02-16T12:20:36;24.70;99.90
19908;DHT22;10116;53.112;7.356;2024-02-16T12:23:11;24.60;99.90
19908;DHT22;10116;53.112;7.356;2024-02-16T12:25:37;24.60;99.90
19908;DHT22;10116;53.112;7.356;2024-02-16T12:28:03;24.60;99.90
19908;DHT22;10116;53.112;7.356;2024-02-16T12:30:28;24.60;99.90
19908;DHT22;10116;53.112;7.356;2024-02-16T12:32:54;24.60;99.90
19908;DHT22;10116;53.112;7.356;2024-02-16T12:35:19;24.60;99.90
19908;DHT22;10116;53.112;7.356;2024-02-16T12:37:45;24.60;99.90
19908;DHT22;10116;53.112;7.356;2024-02-16T12:40:11;24.60;99.90
19908;DHT22;10116;53.112;7.356;2024-02-16T12:42:37;24.60;99.90
19908;DHT22;10116;53.112;7.356;2024-02-16T12:45:03;24.60;99.90
19908;DHT22;10116;53.112;7.356;2024-02-16T12:47:29;24.60;99.90
19908;DHT22;10116;53.112;7.356;2024-02-16T12:49:56;24.60;99.90
19908;DHT22;10116;53.112;7.356;2024-02-16T12:52:23;24.70;99.90
19908;DHT22;10116;53.112;7.356;2024-02-16T12:54:48;24.70;99.90
19908;DHT22;10116;53.112;7.356;2024-02-16T12:57:14;24.80;99.90
19908;DHT22;10116;53.112;7.356;2024-02-16T12:59:40;24.80;99.90
19908;DHT22;10116;53.112;7.356;2024-02-16T13:02:05;24.80;99.90
19908;DHT22;10116;53.112;7.356;2024-02-16T13:04:31;24.80;99.90
19908;DHT22;10116;53.112;7.356;2024-02-16T13:06:58;24.80;99.90
19908;DHT22;10116;53.112;7.356;2024-02-16T13:09:23;24.80;99.90
19908;DHT22;10116;53.112;7.356;2024-02-16T13:11:49;24.80;99.90
19908;DHT22;10116;53.112;7.356;2024-02-16T13:14:20;24.80;99.90
19908;DHT22;10116;53.112;7.356;2024-02-16T13:16:46;24.80;99.90
19908;DHT22;10116;53.112;7.356;2024-02-16T13:19:12;24.80;99.90
19908;DHT22;10116;53.112;7.356;2024-02-16T13:21:38;24.80;99.90
19908;DHT22;10116;53.112;7.356;2024-02-16T13:24:05;24.80;99.90
19908;DHT22;10116;53.112;7.356;2024-02-16T13:26:31;24.80;99.90
19908;DHT22;10116;53.112;7.356;2024-02-16T13:28:57;24.80;99.90
19908;DHT22;10116;53.112;7.356;2024-02-16T13:31:23;24.80;99.90
19908;DHT22;10116;53.112;7.356;2024-02-16T13:33:52;24.80;99.90
19908;DHT22;10116;53.112;7.356;2024-02-16T13:36:18;24.80;99.90
19908;DHT22;10116;53.112;7.356;2024-02-16T13:38:44;24.80;99.90
19908;DHT22;10116;53.112;7.356;2024-02-16T13:41:09;24.80;99.90
19908;DHT22;10116;53.112;7.356;2024-02-16T13:43:35;24.80;99.90
19908;DHT22;10116;53.112;7.356;2024-02-16T13:46:01;24.80;99.90
19908;DHT22;10116;53.112;7.356;2024-02-16T13:48:26;24.80;99.90
19908;DHT22;10116;53.112;7.356;2024-02-16T13:50:54;24.80;99.90
19908;DHT22;10116;53.112;7.356;2024-02-16T13:53:20;24.80;99.90
19908;DHT22;10116;53.112;7.356;2024-02-16T13:55:48;24.80;99.90
19908;DHT22;10116;53.112;7.356;2024-02-16T13:58:14;24.80;99.90
19908;DHT22;10116;53.112;7.356;2024-02-16T14:00:40;24.70;99.90
19908;DHT22;10116;53.112;7.356;2024-02-16T14:03:10;24.70;99.90
19908;DHT22;10116;53.112;7.356;2024-02-16T14:05:40;24.70;99.90
19908;DHT22;10116;53.112;7.356;2024-02-16T14:08:06;24.70;99.90
19908;DHT22;10116;53.112;7.356;2024-02-16T14:10:36;24.60;99.90
19908;DHT22;10116;53.112;7.356;2024-02-16T14:13:02;24.60;99.90
19908;DHT22;10116;53.112;7.356;2024-02-16T14:15:28;24.60;99.90
19908;DHT22;10116;53.112;7.356;2024-02-16T14:17:53;24.60;99.90
19908;DHT22;10116;53.112;7.356;2024-02-16T14:20:19;24.60;99.90
19908;DHT22;10116;53.112;7.356;2024-02-16T14:22:47;24.70;99.90
19908;DHT22;10116;53.112;7.356;2024-02-16T14:25:13;24.70;99.90
19908;DHT22;10116;53.112;7.356;2024-02-16T14:27:39;24.70;99.90
19908;DHT22;10116;53.112;7.356;2024-02-16T14:30:05;24.80;99.90
19908;DHT22;10116;53.112;7.356;2024-02-16T14:32:31;24.80;99.90
19908;DHT22;10116;53.112;7.356;2024-02-16T14:34:57;24.80;99.90
19908;DHT22;10116;53.112;7.356;2024-02-16T14:37:22;24.80;99.90
19908;DHT22;10116;53.112;7.356;2024-02-16T14:39:48;24.80;99.90
19908;DHT22;10116;53.112;7.356;2024-02-16T14:42:14;24.80;99.90
19908;DHT22;10116;53.112;7.356;2024-02-16T14:44:40;24.80;99.90
19908;DHT22;10116;53.112;7.356;2024-02-16T14:47:05;24.80;99.90
19908;DHT22;10116;53.112;7.356;2024-02-16T14:49:31;24.80;99.90
19908;DHT22;10116;53.112;7.356;2024-02-16T14:51:57;24.80;99.90
19908;DHT22;10116;53.112;7.356;2024-02-16T14:54:23;24.80;99.90
19908;DHT22;10116;53.112;7.356;2024-02-16T14:56:52;24.80;99.90
19908;DHT22;10116;53.112;7.356;2024-02-16T14:59:20;24.80;99.90
19908;DHT22;10116;53.112;7.356;2024-02-16T15:01:46;24.80;99.90
19908;DHT22;10116;53.112;7.356;2024-02-16T15:04:11;24.80;99.90
19908;DHT22;10116;53.112;7.356;2024-02-16T15:06:37;24.80;99.90
19908;DHT22;10116;53.112;7.356;2024-02-16T15:09:03;24.80;99.90
19908;DHT22;10116;53.112;7.356;2024-02-16T15:11:30;24.80;99.90
19908;DHT22;10116;53.112;7.356;2024-02-16T15:13:56;24.80;99.90
19908;DHT22;10116;53.112;7.356;2024-02-16T15:16:21;24.80;99.90
19908;DHT22;10116;53.112;7.356;2024-02-16T15:18:47;24.80;99.90
19908;DHT22;10116;53.112;7.356;2024-02-16T15:21:13;24.80;99.90
19908;DHT22;10116;53.112;7.356;2024-02-16T15:23:39;24.80;99.90
19908;DHT22;10116;53.112;7.356;2024-02-16T15:26:04;24.70;99.90
19908;DHT22;10116;53.112;7.356;2024-02-16T15:28:33;24.70;99.90